Tampa — WDB4806 — position and weather

sailwx.info

Track history (hours):
 
Tides and Currents Weather Stations Pressure Air Temp Water Temp Dewpoint Dewpoint Depression Visibility Wind Speed Wind Dir Waves Ship Positions

Tampa

Owner: Tampa Pilots LLC, Tampa, FL. More information available from US FCC via Universal Licensing System and Coast Guard Vessel Documentation Center.

Last reported at 2015-Apr-27 09:06 UTC. Time now 2015-May-04 02:57 UTC.
Position N 27°36' W 082°50'.

Length 19 m; draft 1.5 m.

Type: Pilot. MMSI: 366902570.

Date/timePositionNaut miles runAvg speedWind from/ knotsBaromVisibWave heightAir tempDewpointWater temp
2015-Apr-27 09:06N 27°36' W 082°50'  
2015-Apr-20 06:30N 27°36' W 082°54'8 0.4
2015-Apr-19 12:34N 27°35' W 082°46'2 1.1
2015-Apr-19 11:07N 27°37' W 082°46'3 4.7
2015-Apr-19 10:33N 27°37' W 082°44'2 2.5
2015-Apr-19 09:33N 27°35' W 082°46'0 0.0
2015-Apr-19 08:27N 27°35' W 082°46'8 3.9
2015-Apr-19 06:26N 27°36' W 082°54'8 9.5
2015-Apr-19 05:34N 27°36' W 082°45'1 0.3
2015-Apr-19 03:21N 27°35' W 082°46'  
Track history (hours):
 
Tides and Currents Weather Stations Pressure Air Temp Water Temp Dewpoint Dewpoint Depression Visibility Wind Speed Wind Dir Waves Ship Positions

Tampa

Owner: Tampa Pilots LLC, Tampa, FL. More information available from US FCC via Universal Licensing System and Coast Guard Vessel Documentation Center.

Last reported at 2015-Apr-27 09:06 UTC. Time now 2015-May-04 02:57 UTC.
Position N 27°36' W 082°50'.

Length 19 m; draft 1.5 m.

Type: Pilot. MMSI: 366902570.

Date/timePositionNaut miles runAvg speedWind from/ knotsBaromVisibWave heightAir tempDewpointWater temp
2015-Apr-27 09:06N 27°36' W 082°50'  
2015-Apr-20 06:30N 27°36' W 082°54'8 0.4
2015-Apr-19 12:34N 27°35' W 082°46'2 1.1
2015-Apr-19 11:07N 27°37' W 082°46'3 4.7
2015-Apr-19 10:33N 27°37' W 082°44'2 2.5
2015-Apr-19 09:33N 27°35' W 082°46'0 0.0
2015-Apr-19 08:27N 27°35' W 082°46'8 3.9
2015-Apr-19 06:26N 27°36' W 082°54'8 9.5
2015-Apr-19 05:34N 27°36' W 082°45'1 0.3
2015-Apr-19 03:21N 27°35' W 082°46'  

Dump ship's entire track history